sensor_id;sensor_type;location;lat;lon;timestamp;pressure;altitude;pressure_sealevel;temperature;humidity
64876;BME280;51369;49.862;9.908;2023-12-04T00:00:22;98668.94;;;-4.37;77.67
64876;BME280;51369;49.862;9.908;2023-12-04T00:02:47;98660.13;;;-4.39;77.74
64876;BME280;51369;49.862;9.908;2023-12-04T00:05:13;98654.00;;;-4.38;78.27
64876;BME280;51369;49.862;9.908;2023-12-04T00:07:38;98646.97;;;-4.37;78.84
64876;BME280;51369;49.862;9.908;2023-12-04T00:10:04;98652.25;;;-4.37;78.50
64876;BME280;51369;49.862;9.908;2023-12-04T00:12:30;98651.31;;;-4.39;77.62
64876;BME280;51369;49.862;9.908;2023-12-04T00:14:56;98652.19;;;-4.40;78.15
64876;BME280;51369;49.862;9.908;2023-12-04T00:17:21;98641.63;;;-4.40;77.86
64876;BME280;51369;49.862;9.908;2023-12-04T00:19:47;98649.53;;;-4.40;78.61
64876;BME280;51369;49.862;9.908;2023-12-04T00:22:13;98648.66;;;-4.41;77.92
64876;BME280;51369;49.862;9.908;2023-12-04T00:24:38;98638.13;;;-4.41;78.28
64876;BME280;51369;49.862;9.908;2023-12-04T00:27:04;98635.50;;;-4.39;78.70
64876;BME280;51369;49.862;9.908;2023-12-04T00:29:29;98630.31;;;-4.36;78.55
64876;BME280;51369;49.862;9.908;2023-12-04T00:31:55;98628.59;;;-4.34;79.26
64876;BME280;51369;49.862;9.908;2023-12-04T00:34:22;98621.56;;;-4.34;78.87
64876;BME280;51369;49.862;9.908;2023-12-04T00:36:47;98622.50;;;-4.30;78.62
64876;BME280;51369;49.862;9.908;2023-12-04T00:39:13;98616.41;;;-4.28;79.29
64876;BME280;51369;49.862;9.908;2023-12-04T00:41:38;98619.06;;;-4.26;79.46
64876;BME280;51369;49.862;9.908;2023-12-04T00:44:04;98612.03;;;-4.27;78.88
64876;BME280;51369;49.862;9.908;2023-12-04T00:46:29;98620.78;;;-4.28;78.09
64876;BME280;51369;49.862;9.908;2023-12-04T00:48:55;98623.44;;;-4.28;78.29
64876;BME280;51369;49.862;9.908;2023-12-04T00:51:20;98619.06;;;-4.28;78.64
64876;BME280;51369;49.862;9.908;2023-12-04T00:53:45;98620.84;;;-4.25;78.32
64876;BME280;51369;49.862;9.908;2023-12-04T00:56:11;98622.63;;;-4.24;78.71
64876;BME280;51369;49.862;9.908;2023-12-04T00:58:36;98615.63;;;-4.23;78.82
64876;BME280;51369;49.862;9.908;2023-12-04T01:01:01;98609.44;;;-4.24;78.40
64876;BME280;51369;49.862;9.908;2023-12-04T01:03:27;98594.50;;;-4.25;78.86
64876;BME280;51369;49.862;9.908;2023-12-04T01:05:52;98604.25;;;-4.21;78.78
64876;BME280;51369;49.862;9.908;2023-12-04T01:08:17;98599.03;;;-4.18;79.25
64876;BME280;51369;49.862;9.908;2023-12-04T01:10:43;98602.56;;;-4.16;79.09
64876;BME280;51369;49.862;9.908;2023-12-04T01:13:08;98606.97;;;-4.16;79.02
64876;BME280;51369;49.862;9.908;2023-12-04T01:15:33;98607.78;;;-4.19;78.56
64876;BME280;51369;49.862;9.908;2023-12-04T01:17:59;98613.03;;;-4.20;79.12
64876;BME280;51369;49.862;9.908;2023-12-04T01:20:25;98598.03;;;-4.24;78.59
64876;BME280;51369;49.862;9.908;2023-12-04T01:22:51;98597.09;;;-4.27;77.94
64876;BME280;51369;49.862;9.908;2023-12-04T01:25:16;98603.25;;;-4.26;78.43
64876;BME280;51369;49.862;9.908;2023-12-04T01:27:42;98597.09;;;-4.27;78.65
64876;BME280;51369;49.862;9.908;2023-12-04T01:30:07;98591.84;;;-4.27;78.39
64876;BME280;51369;49.862;9.908;2023-12-04T01:32:34;98595.34;;;-4.26;78.21
64876;BME280;51369;49.862;9.908;2023-12-04T01:34:59;98593.59;;;-4.27;78.31
64876;BME280;51369;49.862;9.908;2023-12-04T01:37:25;98587.44;;;-4.26;78.57
64876;BME280;51369;49.862;9.908;2023-12-04T01:39:50;98593.59;;;-4.27;78.44
64876;BME280;51369;49.862;9.908;2023-12-04T01:42:15;98585.66;;;-4.27;79.37
64876;BME280;51369;49.862;9.908;2023-12-04T01:44:41;98584.78;;;-4.28;79.08
64876;BME280;51369;49.862;9.908;2023-12-04T01:47:06;98590.09;;;-4.26;79.16
64876;BME280;51369;49.862;9.908;2023-12-04T01:49:32;98583.94;;;-4.27;79.00
64876;BME280;51369;49.862;9.908;2023-12-04T01:51:58;98584.75;;;-4.29;78.40
64876;BME280;51369;49.862;9.908;2023-12-04T01:54:23;98585.59;;;-4.32;78.66
64876;BME280;51369;49.862;9.908;2023-12-04T01:56:49;98586.38;;;-4.36;78.21
64876;BME280;51369;49.862;9.908;2023-12-04T01:59:15;98581.94;;;-4.38;78.07
64876;BME280;51369;49.862;9.908;2023-12-04T02:01:41;98581.09;;;-4.37;78.54
64876;BME280;51369;49.862;9.908;2023-12-04T02:04:07;98567.09;;;-4.33;79.35
64876;BME280;51369;49.862;9.908;2023-12-04T02:06:32;98561.06;;;-4.28;78.83
64876;BME280;51369;49.862;9.908;2023-12-04T02:08:58;98567.31;;;-4.22;79.38
64876;BME280;51369;49.862;9.908;2023-12-04T02:11:23;98565.63;;;-4.19;79.18
64876;BME280;51369;49.862;9.908;2023-12-04T02:13:49;98563.06;;;-4.14;78.83
64876;BME280;51369;49.862;9.908;2023-12-04T02:16:16;98559.59;;;-4.12;78.63
64876;BME280;51369;49.862;9.908;2023-12-04T02:18:42;98560.53;;;-4.08;79.18
64876;BME280;51369;49.862;9.908;2023-12-04T02:21:08;98561.47;;;-4.05;78.61
64876;BME280;51369;49.862;9.908;2023-12-04T02:23:33;98548.34;;;-4.02;78.71
64876;BME280;51369;49.862;9.908;2023-12-04T02:26:03;98542.25;;;-3.99;78.82
64876;BME280;51369;49.862;9.908;2023-12-04T02:28:33;98537.00;;;-3.98;78.82
64876;BME280;51369;49.862;9.908;2023-12-04T02:30:59;98542.28;;;-3.96;78.42
64876;BME280;51369;49.862;9.908;2023-12-04T02:33:26;98530.00;;;-3.96;78.65
64876;BME280;51369;49.862;9.908;2023-12-04T02:35:53;98534.41;;;-3.95;78.46
64876;BME280;51369;49.862;9.908;2023-12-04T02:38:19;98527.38;;;-3.94;78.66
64876;BME280;51369;49.862;9.908;2023-12-04T02:40:46;98527.38;;;-3.94;78.85
64876;BME280;51369;49.862;9.908;2023-12-04T02:43:11;98523.00;;;-3.94;78.60
64876;BME280;51369;49.862;9.908;2023-12-04T02:45:37;98515.09;;;-3.94;78.46
64876;BME280;51369;49.862;9.908;2023-12-04T02:48:02;98513.34;;;-3.93;78.01
64876;BME280;51369;49.862;9.908;2023-12-04T02:50:27;98514.22;;;-3.92;78.00
64876;BME280;51369;49.862;9.908;2023-12-04T02:52:53;98516.84;;;-3.92;78.67
64876;BME280;51369;49.862;9.908;2023-12-04T02:55:18;98512.44;;;-3.94;78.18
64876;BME280;51369;49.862;9.908;2023-12-04T02:57:45;98518.59;;;-3.95;78.51
64876;BME280;51369;49.862;9.908;2023-12-04T03:00:10;98513.28;;;-3.96;78.05
64876;BME280;51369;49.862;9.908;2023-12-04T03:02:36;98507.16;;;-3.94;78.27
64876;BME280;51369;49.862;9.908;2023-12-04T03:05:01;98495.75;;;-3.92;78.16
64876;BME280;51369;49.862;9.908;2023-12-04T03:07:26;98504.59;;;-3.90;78.39
64876;BME280;51369;49.862;9.908;2023-12-04T03:09:52;98503.72;;;-3.89;78.16
64876;BME280;51369;49.862;9.908;2023-12-04T03:12:18;98496.69;;;-3.89;78.78
64876;BME280;51369;49.862;9.908;2023-12-04T03:14:43;98487.06;;;-3.87;78.49
64876;BME280;51369;49.862;9.908;2023-12-04T03:17:09;98481.78;;;-3.87;78.39
64876;BME280;51369;49.862;9.908;2023-12-04T03:19:34;98481.84;;;-3.82;78.35
64876;BME280;51369;49.862;9.908;2023-12-04T03:22:00;98473.94;;;-3.82;78.79
64876;BME280;51369;49.862;9.908;2023-12-04T03:24:26;98470.44;;;-3.81;77.88
64876;BME280;51369;49.862;9.908;2023-12-04T03:26:52;98469.56;;;-3.80;78.57
64876;BME280;51369;49.862;9.908;2023-12-04T03:29:17;98474.00;;;-3.79;78.08
64876;BME280;51369;49.862;9.908;2023-12-04T03:31:43;98475.75;;;-3.78;77.95
64876;BME280;51369;49.862;9.908;2023-12-04T03:34:08;98471.41;;;-3.76;78.71
64876;BME280;51369;49.862;9.908;2023-12-04T03:36:33;98467.91;;;-3.75;78.53
64876;BME280;51369;49.862;9.908;2023-12-04T03:38:59;98469.69;;;-3.73;78.66
64876;BME280;51369;49.862;9.908;2023-12-04T03:41:24;98459.16;;;-3.71;77.69
64876;BME280;51369;49.862;9.908;2023-12-04T03:43:49;98458.31;;;-3.70;78.08
64876;BME280;51369;49.862;9.908;2023-12-04T03:46:15;98452.16;;;-3.69;78.34
64876;BME280;51369;49.862;9.908;2023-12-04T03:48:40;98450.44;;;-3.67;77.88
64876;BME280;51369;49.862;9.908;2023-12-04T03:51:06;98457.47;;;-3.66;77.69
64876;BME280;51369;49.862;9.908;2023-12-04T03:53:31;98448.69;;;-3.65;77.64
64876;BME280;51369;49.862;9.908;2023-12-04T03:55:59;98451.34;;;-3.64;78.16
64876;BME280;51369;49.862;9.908;2023-12-04T03:58:24;98450.50;;;-3.63;77.98
64876;BME280;51369;49.862;9.908;2023-12-04T04:00:50;98447.88;;;-3.61;77.56
64876;BME280;51369;49.862;9.908;2023-12-04T04:03:15;98441.72;;;-3.62;77.57
64876;BME280;51369;49.862;9.908;2023-12-04T04:05:40;98440.88;;;-3.59;77.04
64876;BME280;51369;49.862;9.908;2023-12-04T04:08:06;98444.41;;;-3.58;77.59
64876;BME280;51369;49.862;9.908;2023-12-04T04:10:33;98440.88;;;-3.57;77.22
64876;BME280;51369;49.862;9.908;2023-12-04T04:12:58;98436.50;;;-3.57;77.03
64876;BME280;51369;49.862;9.908;2023-12-04T04:15:24;98431.22;;;-3.57;77.24
64876;BME280;51369;49.862;9.908;2023-12-04T04:17:50;98429.50;;;-3.55;77.34
64876;BME280;51369;49.862;9.908;2023-12-04T04:20:16;98416.28;;;-3.55;78.07
64876;BME280;51369;49.862;9.908;2023-12-04T04:22:42;98414.53;;;-3.54;77.58
64876;BME280;51369;49.862;9.908;2023-12-04T04:25:08;98416.34;;;-3.52;77.39
64876;BME280;51369;49.862;9.908;2023-12-04T04:27:34;98404.91;;;-3.51;77.78
64876;BME280;51369;49.862;9.908;2023-12-04T04:30:00;98409.34;;;-3.48;77.69
64876;BME280;51369;49.862;9.908;2023-12-04T04:32:26;98389.13;;;-3.48;77.97
64876;BME280;51369;49.862;9.908;2023-12-04T04:34:51;98395.28;;;-3.46;77.13
64876;BME280;51369;49.862;9.908;2023-12-04T04:37:17;98384.72;;;-3.44;77.54
64876;BME280;51369;49.862;9.908;2023-12-04T04:39:42;98387.41;;;-3.43;77.47
64876;BME280;51369;49.862;9.908;2023-12-04T04:42:07;98377.72;;;-3.42;77.19
64876;BME280;51369;49.862;9.908;2023-12-04T04:44:33;98380.38;;;-3.41;77.06
64876;BME280;51369;49.862;9.908;2023-12-04T04:46:58;98375.97;;;-3.40;76.51
64876;BME280;51369;49.862;9.908;2023-12-04T04:49:23;98383.91;;;-3.40;76.77
64876;BME280;51369;49.862;9.908;2023-12-04T04:51:49;98375.09;;;-3.41;77.02
64876;BME280;51369;49.862;9.908;2023-12-04T04:54:14;98384.78;;;-3.40;76.85
64876;BME280;51369;49.862;9.908;2023-12-04T04:56:39;98369.84;;;-3.39;76.47
64876;BME280;51369;49.862;9.908;2023-12-04T04:59:05;98367.19;;;-3.39;77.13
64876;BME280;51369;49.862;9.908;2023-12-04T05:01:31;98368.06;;;-3.40;76.25
64876;BME280;51369;49.862;9.908;2023-12-04T05:03:56;98362.81;;;-3.39;77.16
64876;BME280;51369;49.862;9.908;2023-12-04T05:06:22;98363.69;;;-3.40;76.85
64876;BME280;51369;49.862;9.908;2023-12-04T05:08:48;98371.59;;;-3.40;76.40
64876;BME280;51369;49.862;9.908;2023-12-04T05:11:16;98358.38;;;-3.41;76.34
64876;BME280;51369;49.862;9.908;2023-12-04T05:13:42;98348.72;;;-3.41;76.54
64876;BME280;51369;49.862;9.908;2023-12-04T05:16:08;98353.97;;;-3.41;77.02
64876;BME280;51369;49.862;9.908;2023-12-04T05:18:33;98346.94;;;-3.40;77.10
64876;BME280;51369;49.862;9.908;2023-12-04T05:20:58;98344.31;;;-3.40;76.63
64876;BME280;51369;49.862;9.908;2023-12-04T05:23:24;98352.25;;;-3.39;76.59
64876;BME280;51369;49.862;9.908;2023-12-04T05:25:49;98354.88;;;-3.39;76.22
64876;BME280;51369;49.862;9.908;2023-12-04T05:28:14;98354.88;;;-3.39;77.10
64876;BME280;51369;49.862;9.908;2023-12-04T05:30:40;98353.13;;;-3.38;77.06
64876;BME280;51369;49.862;9.908;2023-12-04T05:33:05;98363.69;;;-3.38;76.43
64876;BME280;51369;49.862;9.908;2023-12-04T05:35:30;98361.91;;;-3.39;76.78
64876;BME280;51369;49.862;9.908;2023-12-04T05:37:59;98361.91;;;-3.39;76.79
64876;BME280;51369;49.862;9.908;2023-12-04T05:40:25;98361.06;;;-3.38;76.60
64876;BME280;51369;49.862;9.908;2023-12-04T05:42:50;98361.94;;;-3.38;76.54
64876;BME280;51369;49.862;9.908;2023-12-04T05:45:17;98361.06;;;-3.37;76.89
64876;BME280;51369;49.862;9.908;2023-12-04T05:47:42;98353.19;;;-3.34;77.06
64876;BME280;51369;49.862;9.908;2023-12-04T05:50:08;98356.72;;;-3.33;77.12
64876;BME280;51369;49.862;9.908;2023-12-04T05:52:33;98358.50;;;-3.32;76.62
64876;BME280;51369;49.862;9.908;2023-12-04T05:54:59;98356.72;;;-3.32;77.23
64876;BME280;51369;49.862;9.908;2023-12-04T05:57:24;98349.69;;;-3.31;76.44
64876;BME280;51369;49.862;9.908;2023-12-04T05:59:49;98355.88;;;-3.31;76.52
64876;BME280;51369;49.862;9.908;2023-12-04T06:02:15;98362.91;;;-3.30;76.75
64876;BME280;51369;49.862;9.908;2023-12-04T06:04:41;98360.28;;;-3.30;77.22
64876;BME280;51369;49.862;9.908;2023-12-04T06:07:06;98353.22;;;-3.31;77.01
64876;BME280;51369;49.862;9.908;2023-12-04T06:09:32;98359.38;;;-3.30;76.79
64876;BME280;51369;49.862;9.908;2023-12-04T06:11:57;98362.00;;;-3.32;77.29
64876;BME280;51369;49.862;9.908;2023-12-04T06:14:23;98361.13;;;-3.32;76.82
64876;BME280;51369;49.862;9.908;2023-12-04T06:16:48;98362.00;;;-3.33;76.44
64876;BME280;51369;49.862;9.908;2023-12-04T06:19:14;98361.09;;;-3.34;76.34
64876;BME280;51369;49.862;9.908;2023-12-04T06:21:39;98354.94;;;-3.34;76.98
64876;BME280;51369;49.862;9.908;2023-12-04T06:24:05;98352.28;;;-3.36;76.66
64876;BME280;51369;49.862;9.908;2023-12-04T06:26:31;98348.75;;;-3.36;76.79
64876;BME280;51369;49.862;9.908;2023-12-04T06:28:57;98352.28;;;-3.36;76.71
64876;BME280;51369;49.862;9.908;2023-12-04T06:31:23;98343.47;;;-3.38;77.35
64876;BME280;51369;49.862;9.908;2023-12-04T06:33:48;98341.69;;;-3.39;76.48
64876;BME280;51369;49.862;9.908;2023-12-04T06:36:14;98342.56;;;-3.40;76.54
64876;BME280;51369;49.862;9.908;2023-12-04T06:38:40;98340.78;;;-3.41;76.51
64876;BME280;51369;49.862;9.908;2023-12-04T06:41:07;98334.63;;;-3.41;76.77
64876;BME280;51369;49.862;9.908;2023-12-04T06:43:32;98336.38;;;-3.42;76.68
64876;BME280;51369;49.862;9.908;2023-12-04T06:45:58;98332.84;;;-3.42;77.12
64876;BME280;51369;49.862;9.908;2023-12-04T06:48:24;98334.59;;;-3.43;76.61
64876;BME280;51369;49.862;9.908;2023-12-04T06:50:50;98331.09;;;-3.43;76.08
64876;BME280;51369;49.862;9.908;2023-12-04T06:53:15;98318.75;;;-3.44;76.75
64876;BME280;51369;49.862;9.908;2023-12-04T06:55:41;98319.63;;;-3.44;76.58
64876;BME280;51369;49.862;9.908;2023-12-04T06:58:06;98328.41;;;-3.46;76.56
64876;BME280;51369;49.862;9.908;2023-12-04T07:00:32;98314.34;;;-3.48;76.05
64876;BME280;51369;49.862;9.908;2023-12-04T07:02:57;98324.00;;;-3.49;76.71
64876;BME280;51369;49.862;9.908;2023-12-04T07:05:23;98314.31;;;-3.50;75.97
64876;BME280;51369;49.862;9.908;2023-12-04T07:07:48;98313.44;;;-3.49;76.70
64876;BME280;51369;49.862;9.908;2023-12-04T07:10:14;98317.88;;;-3.48;76.09
64876;BME280;51369;49.862;9.908;2023-12-04T07:12:43;98317.84;;;-3.49;76.79
64876;BME280;51369;49.862;9.908;2023-12-04T07:15:10;98323.13;;;-3.48;76.86
64876;BME280;51369;49.862;9.908;2023-12-04T07:17:37;98311.72;;;-3.47;76.27
64876;BME280;51369;49.862;9.908;2023-12-04T07:20:02;98316.09;;;-3.46;76.14
64876;BME280;51369;49.862;9.908;2023-12-04T07:22:27;98309.06;;;-3.45;76.46
64876;BME280;51369;49.862;9.908;2023-12-04T07:24:53;98317.00;;;-3.44;76.37
64876;BME280;51369;49.862;9.908;2023-12-04T07:27:18;98309.09;;;-3.42;76.05
64876;BME280;51369;49.862;9.908;2023-12-04T07:29:44;98317.03;;;-3.41;76.08
64876;BME280;51369;49.862;9.908;2023-12-04T07:32:09;98311.78;;;-3.38;76.39
64876;BME280;51369;49.862;9.908;2023-12-04T07:34:34;98308.28;;;-3.37;76.38
64876;BME280;51369;49.862;9.908;2023-12-04T07:37:00;98317.97;;;-3.36;76.08
64876;BME280;51369;49.862;9.908;2023-12-04T07:39:25;98307.44;;;-3.34;75.88
64876;BME280;51369;49.862;9.908;2023-12-04T07:41:51;98310.09;;;-3.33;76.44
64876;BME280;51369;49.862;9.908;2023-12-04T07:44:16;98320.69;;;-3.30;76.61
64876;BME280;51369;49.862;9.908;2023-12-04T07:46:41;98315.44;;;-3.27;76.29
64876;BME280;51369;49.862;9.908;2023-12-04T07:49:07;98311.06;;;-3.24;76.12
64876;BME280;51369;49.862;9.908;2023-12-04T07:51:33;98312.84;;;-3.20;75.88
64876;BME280;51369;49.862;9.908;2023-12-04T07:53:58;98310.25;;;-3.17;75.84
64876;BME280;51369;49.862;9.908;2023-12-04T07:56:23;98306.75;;;-3.15;75.69
64876;BME280;51369;49.862;9.908;2023-12-04T07:58:49;98307.69;;;-3.10;76.01
64876;BME280;51369;49.862;9.908;2023-12-04T08:01:14;98302.44;;;-3.05;76.21
64876;BME280;51369;49.862;9.908;2023-12-04T08:03:40;98297.22;;;-3.01;75.43
64876;BME280;51369;49.862;9.908;2023-12-04T08:06:05;98298.13;;;-2.96;76.35
64876;BME280;51369;49.862;9.908;2023-12-04T08:08:31;98295.53;;;-2.91;76.13
64876;BME280;51369;49.862;9.908;2023-12-04T08:10:57;98287.66;;;-2.85;76.25
64876;BME280;51369;49.862;9.908;2023-12-04T08:13:23;98285.94;;;-2.80;76.01
64876;BME280;51369;49.862;9.908;2023-12-04T08:15:48;98285.09;;;-2.76;75.46
64876;BME280;51369;49.862;9.908;2023-12-04T08:18:13;98280.75;;;-2.71;75.92
64876;BME280;51369;49.862;9.908;2023-12-04T08:20:39;98271.09;;;-2.66;75.34
64876;BME280;51369;49.862;9.908;2023-12-04T08:23:04;98274.66;;;-2.59;75.60
64876;BME280;51369;49.862;9.908;2023-12-04T08:25:30;98267.66;;;-2.55;75.31
64876;BME280;51369;49.862;9.908;2023-12-04T08:27:58;98275.59;;;-2.51;75.58
64876;BME280;51369;49.862;9.908;2023-12-04T08:30:24;98277.41;;;-2.47;75.48
64876;BME280;51369;49.862;9.908;2023-12-04T08:32:49;98272.13;;;-2.44;75.11
64876;BME280;51369;49.862;9.908;2023-12-04T08:35:14;98273.06;;;-2.37;75.24
64876;BME280;51369;49.862;9.908;2023-12-04T08:37:40;98275.72;;;-2.33;74.81
64876;BME280;51369;49.862;9.908;2023-12-04T08:40:06;98274.00;;;-2.27;74.70
64876;BME280;51369;49.862;9.908;2023-12-04T08:42:33;98270.50;;;-2.22;74.36
64876;BME280;51369;49.862;9.908;2023-12-04T08:44:59;98274.06;;;-2.17;74.21
64876;BME280;51369;49.862;9.908;2023-12-04T08:47:24;98271.44;;;-2.14;74.36
64876;BME280;51369;49.862;9.908;2023-12-04T08:49:50;98275.00;;;-2.09;74.02
64876;BME280;51369;49.862;9.908;2023-12-04T08:52:16;98269.72;;;-2.06;74.29
64876;BME280;51369;49.862;9.908;2023-12-04T08:54:41;98270.63;;;-2.01;73.50
64876;BME280;51369;49.862;9.908;2023-12-04T08:57:07;98256.53;;;-1.98;74.30
64876;BME280;51369;49.862;9.908;2023-12-04T08:59:33;98256.56;;;-1.93;73.49
64876;BME280;51369;49.862;9.908;2023-12-04T09:01:58;98257.44;;;-1.91;73.89
64876;BME280;51369;49.862;9.908;2023-12-04T09:04:23;98250.41;;;-1.88;73.65
64876;BME280;51369;49.862;9.908;2023-12-04T09:06:49;98249.53;;;-1.84;73.79
64876;BME280;51369;49.862;9.908;2023-12-04T09:09:15;98244.25;;;-1.81;73.57
64876;BME280;51369;49.862;9.908;2023-12-04T09:11:42;98236.34;;;-1.78;73.30
64876;BME280;51369;49.862;9.908;2023-12-04T09:14:08;98228.41;;;-1.75;73.77
64876;BME280;51369;49.862;9.908;2023-12-04T09:16:34;98226.63;;;-1.73;73.19
64876;BME280;51369;49.862;9.908;2023-12-04T09:18:59;98224.88;;;-1.69;73.48
64876;BME280;51369;49.862;9.908;2023-12-04T09:21:24;98224.88;;;-1.66;73.28
64876;BME280;51369;49.862;9.908;2023-12-04T09:23:51;98228.41;;;-1.64;73.60
64876;BME280;51369;49.862;9.908;2023-12-04T09:26:16;98229.31;;;-1.60;73.00
64876;BME280;51369;49.862;9.908;2023-12-04T09:28:42;98227.53;;;-1.58;72.67
64876;BME280;51369;49.862;9.908;2023-12-04T09:31:10;98223.13;;;-1.56;72.81
64876;BME280;51369;49.862;9.908;2023-12-04T09:33:36;98216.09;;;-1.53;72.92
64876;BME280;51369;49.862;9.908;2023-12-04T09:36:02;98218.75;;;-1.51;72.97
64876;BME280;51369;49.862;9.908;2023-12-04T09:38:29;98217.88;;;-1.49;72.85
64876;BME280;51369;49.862;9.908;2023-12-04T09:40:59;98208.16;;;-1.48;72.39
64876;BME280;51369;49.862;9.908;2023-12-04T09:43:25;98203.75;;;-1.46;72.47
64876;BME280;51369;49.862;9.908;2023-12-04T09:45:51;98207.28;;;-1.43;72.64
64876;BME280;51369;49.862;9.908;2023-12-04T09:48:16;98200.22;;;-1.39;72.33
64876;BME280;51369;49.862;9.908;2023-12-04T09:50:42;98198.47;;;-1.36;72.48
64876;BME280;51369;49.862;9.908;2023-12-04T09:53:10;98186.13;;;-1.34;72.44
64876;BME280;51369;49.862;9.908;2023-12-04T09:55:36;98171.13;;;-1.30;72.39
64876;BME280;51369;49.862;9.908;2023-12-04T09:58:02;98161.41;;;-1.26;72.32
64876;BME280;51369;49.862;9.908;2023-12-04T10:00:30;98156.09;;;-1.23;72.43
64876;BME280;51369;49.862;9.908;2023-12-04T10:02:57;98152.56;;;-1.21;72.52
64876;BME280;51369;49.862;9.908;2023-12-04T10:05:22;98142.88;;;-1.16;72.33
64876;BME280;51369;49.862;9.908;2023-12-04T10:07:49;98140.22;;;-1.11;72.20
64876;BME280;51369;49.862;9.908;2023-12-04T10:10:15;98126.09;;;-1.07;72.17
64876;BME280;51369;49.862;9.908;2023-12-04T10:12:42;98111.94;;;-1.03;72.50
64876;BME280;51369;49.862;9.908;2023-12-04T10:15:12;98101.34;;;-1.00;72.33
64876;BME280;51369;49.862;9.908;2023-12-04T10:17:39;98088.09;;;-0.99;72.34
64876;BME280;51369;49.862;9.908;2023-12-04T10:20:10;98077.50;;;-0.95;72.62
64876;BME280;51369;49.862;9.908;2023-12-04T10:22:52;98068.66;;;-0.93;72.60
64876;BME280;51369;49.862;9.908;2023-12-04T10:25:18;98071.28;;;-0.90;72.71
64876;BME280;51369;49.862;9.908;2023-12-04T10:27:45;98057.16;;;-0.86;72.84
64876;BME280;51369;49.862;9.908;2023-12-04T10:30:31;98067.75;;;-0.81;73.11
64876;BME280;51369;49.862;9.908;2023-12-04T10:32:57;98073.03;;;-0.75;72.63
64876;BME280;51369;49.862;9.908;2023-12-04T10:35:28;98070.34;;;-0.68;72.12
64876;BME280;51369;49.862;9.908;2023-12-04T10:37:54;98070.31;;;-0.60;72.82
64876;BME280;51369;49.862;9.908;2023-12-04T10:40:28;98069.41;;;-0.54;72.60
64876;BME280;51369;49.862;9.908;2023-12-04T10:45:38;98071.13;;;-0.40;71.94
64876;BME280;51369;49.862;9.908;2023-12-04T10:48:05;98071.13;;;-0.35;71.76
64876;BME280;51369;49.862;9.908;2023-12-04T10:50:35;98067.56;;;-0.32;72.16
64876;BME280;51369;49.862;9.908;2023-12-04T10:53:03;98058.72;;;-0.30;71.69
64876;BME280;51369;49.862;9.908;2023-12-04T10:55:30;98058.69;;;-0.27;71.04
64876;BME280;51369;49.862;9.908;2023-12-04T10:57:56;98055.16;;;-0.26;71.07
64876;BME280;51369;49.862;9.908;2023-12-04T11:00:22;98040.13;;;-0.27;71.14
64876;BME280;51369;49.862;9.908;2023-12-04T11:02:48;98050.75;;;-0.27;70.56
64876;BME280;51369;49.862;9.908;2023-12-04T11:05:16;98056.03;;;-0.27;70.56
64876;BME280;51369;49.862;9.908;2023-12-04T11:08:00;98055.16;;;-0.27;70.52
64876;BME280;51369;49.862;9.908;2023-12-04T11:10:28;98057.81;;;-0.24;70.79
64876;BME280;51369;49.862;9.908;2023-12-04T11:13:06;98057.78;;;-0.23;70.54
64876;BME280;51369;49.862;9.908;2023-12-04T11:15:35;98059.56;;;-0.22;70.28
64876;BME280;51369;49.862;9.908;2023-12-04T11:18:06;98048.06;;;-0.24;69.91
64876;BME280;51369;49.862;9.908;2023-12-04T11:20:39;98044.53;;;-0.24;69.73
64876;BME280;51369;49.862;9.908;2023-12-04T11:23:06;98039.22;;;-0.24;70.18
64876;BME280;51369;49.862;9.908;2023-12-04T11:25:33;98053.38;;;-0.24;70.46
64876;BME280;51369;49.862;9.908;2023-12-04T11:28:01;98062.22;;;-0.22;70.66
64876;BME280;51369;49.862;9.908;2023-12-04T11:30:28;98053.34;;;-0.18;70.55
64876;BME280;51369;49.862;9.908;2023-12-04T11:32:54;98064.84;;;-0.16;70.11
64876;BME280;51369;49.862;9.908;2023-12-04T11:35:25;98055.97;;;-0.13;70.81
64876;BME280;51369;49.862;9.908;2023-12-04T11:37:52;98066.56;;;-0.10;70.39
64876;BME280;51369;49.862;9.908;2023-12-04T11:40:18;98041.78;;;-0.05;70.72
64876;BME280;51369;49.862;9.908;2023-12-04T11:42:44;98040.00;;;-0.03;69.88
64876;BME280;51369;49.862;9.908;2023-12-04T11:45:10;98039.94;;;0.00;69.98
64876;BME280;51369;49.862;9.908;2023-12-04T11:47:49;98032.84;;;0.04;70.90
64876;BME280;51369;49.862;9.908;2023-12-04T11:50:14;98031.94;;;0.07;70.47
64876;BME280;51369;49.862;9.908;2023-12-04T11:52:40;98025.72;;;0.08;69.97
64876;BME280;51369;49.862;9.908;2023-12-04T11:55:06;98021.28;;;0.10;70.42
64876;BME280;51369;49.862;9.908;2023-12-04T11:57:33;98016.88;;;0.10;69.92
64876;BME280;51369;49.862;9.908;2023-12-04T12:00:13;98010.66;;;0.11;70.02
64876;BME280;51369;49.862;9.908;2023-12-04T12:05:17;97995.59;;;0.15;70.40
64876;BME280;51369;49.862;9.908;2023-12-04T12:07:43;97995.59;;;0.15;69.69
64876;BME280;51369;49.862;9.908;2023-12-04T12:10:09;97966.41;;;0.13;69.63
64876;BME280;51369;49.862;9.908;2023-12-04T12:12:36;97953.13;;;0.13;69.81
64876;BME280;51369;49.862;9.908;2023-12-04T12:15:02;97939.88;;;0.13;70.36
64876;BME280;51369;49.862;9.908;2023-12-04T12:17:27;97967.28;;;0.15;70.08
64876;BME280;51369;49.862;9.908;2023-12-04T12:19:54;97990.25;;;0.21;70.57
64876;BME280;51369;49.862;9.908;2023-12-04T12:22:22;97985.75;;;0.29;70.84
64876;BME280;51369;49.862;9.908;2023-12-04T12:24:47;97990.13;;;0.35;70.72
64876;BME280;51369;49.862;9.908;2023-12-04T12:27:12;97987.44;;;0.39;70.44
64876;BME280;51369;49.862;9.908;2023-12-04T12:29:38;97993.59;;;0.44;70.37
64876;BME280;51369;49.862;9.908;2023-12-04T12:32:03;97994.47;;;0.45;69.58
64876;BME280;51369;49.862;9.908;2023-12-04T12:34:29;97985.59;;;0.47;69.95
64876;BME280;51369;49.862;9.908;2023-12-04T12:36:54;97975.84;;;0.48;69.31
64876;BME280;51369;49.862;9.908;2023-12-04T12:39:19;97964.31;;;0.50;69.04
64876;BME280;51369;49.862;9.908;2023-12-04T12:41:49;97966.09;;;0.50;68.94
64876;BME280;51369;49.862;9.908;2023-12-04T12:44:15;97955.47;;;0.48;69.64
64876;BME280;51369;49.862;9.908;2023-12-04T12:46:40;97950.19;;;0.47;68.57
64876;BME280;51369;49.862;9.908;2023-12-04T12:49:06;97941.38;;;0.43;69.38
64876;BME280;51369;49.862;9.908;2023-12-04T12:51:31;97934.31;;;0.41;69.35
64876;BME280;51369;49.862;9.908;2023-12-04T12:53:57;97926.38;;;0.38;68.81
64876;BME280;51369;49.862;9.908;2023-12-04T12:56:23;97921.97;;;0.35;69.36
64876;BME280;51369;49.862;9.908;2023-12-04T12:58:49;97922.00;;;0.32;69.06
64876;BME280;51369;49.862;9.908;2023-12-04T13:01:15;97916.69;;;0.32;69.60